createdAt,value
2024-02-14T00:00:09.881Z,136.22
2024-02-14T00:01:09.952Z,134.65
2024-02-14T00:02:09.898Z,135.68
2024-02-14T00:03:10.085Z,134.93
2024-02-14T00:04:10.084Z,135.71
2024-02-14T00:05:10.014Z,135.23
2024-02-14T00:06:10.130Z,133.05
2024-02-14T00:07:10.165Z,135.18
2024-02-14T00:08:10.111Z,134.14
2024-02-14T00:09:10.252Z,133.60
2024-02-14T00:10:10.200Z,133.94
2024-02-14T00:11:10.216Z,133.68
2024-02-14T00:12:10.318Z,136.16
2024-02-14T00:13:10.302Z,135.18
2024-02-14T00:14:10.346Z,136.54
2024-02-14T00:15:10.399Z,138.00
2024-02-14T00:16:10.360Z,138.57
2024-02-14T00:17:10.405Z,137.73
2024-02-14T00:18:10.530Z,136.89
2024-02-14T00:19:10.530Z,138.18
2024-02-14T00:20:10.465Z,139.62
2024-02-14T00:21:10.604Z,143.14
2024-02-14T00:22:10.551Z,140.80
2024-02-14T00:23:10.518Z,140.53
2024-02-14T00:24:10.605Z,142.89
2024-02-14T00:25:10.715Z,146.34
2024-02-14T00:26:10.574Z,145.55
2024-02-14T00:27:10.616Z,141.55
2024-02-14T00:28:10.610Z,143.14
2024-02-14T00:29:10.589Z,142.54
2024-02-14T00:30:10.663Z,140.05
2024-02-14T00:31:10.632Z,143.46
2024-02-14T00:32:10.642Z,142.73
2024-02-14T00:33:10.906Z,142.77
2024-02-14T00:34:10.779Z,143.87
2024-02-14T00:35:10.743Z,144.30
2024-02-14T00:36:10.735Z,145.73
2024-02-14T00:37:10.730Z,144.48
2024-02-14T00:38:10.737Z,146.94
2024-02-14T00:39:10.813Z,140.95
2024-02-14T00:40:10.751Z,143.44
2024-02-14T00:41:11.073Z,143.07
2024-02-14T00:42:10.758Z,141.25
2024-02-14T00:43:10.784Z,139.77
2024-02-14T00:44:10.784Z,141.82
2024-02-14T00:45:10.862Z,137.73
2024-02-14T00:46:10.784Z,140.45
2024-02-14T00:47:10.791Z,137.95
2024-02-14T00:48:10.929Z,138.37
2024-02-14T00:49:10.967Z,141.33
2024-02-14T00:50:10.805Z,138.26
2024-02-14T00:51:11.100Z,140.46
2024-02-14T00:52:10.820Z,139.67
2024-02-14T00:53:10.871Z,139.39
2024-02-14T00:54:10.945Z,141.57
2024-02-14T00:55:10.903Z,142.18
2024-02-14T00:56:10.914Z,143.64
2024-02-14T00:57:10.916Z,142.52
2024-02-14T00:58:10.923Z,143.09
2024-02-14T00:59:10.929Z,143.58
2024-02-14T01:00:11.031Z,147.82
2024-02-14T01:01:10.980Z,144.00
2024-02-14T01:02:10.965Z,145.65
2024-02-14T01:03:10.971Z,144.32
2024-02-14T01:04:10.990Z,146.90
2024-02-14T01:05:11.011Z,144.10
2024-02-14T01:06:11.029Z,147.29
2024-02-14T01:07:10.980Z,145.96
2024-02-14T01:08:11.041Z,147.59
2024-02-14T01:09:11.029Z,149.00
2024-02-14T01:10:11.041Z,146.54
2024-02-14T01:11:11.077Z,144.12
2024-02-14T01:12:11.078Z,148.34
2024-02-14T01:13:11.094Z,147.64
2024-02-14T01:14:11.085Z,144.65
2024-02-14T01:15:11.190Z,148.61
2024-02-14T01:16:11.128Z,146.24
2024-02-14T01:17:11.114Z,148.84
2024-02-14T01:18:11.752Z,147.92
2024-02-14T01:19:11.221Z,148.26
2024-02-14T01:20:11.211Z,145.50
2024-02-14T01:21:11.197Z,149.72
2024-02-14T01:22:12.055Z,146.24
2024-02-14T01:23:11.169Z,145.65
2024-02-14T01:24:11.167Z,142.67
2024-02-14T01:25:11.202Z,141.19
2024-02-14T01:26:11.587Z,140.60
2024-02-14T01:27:11.272Z,136.96
2024-02-14T01:28:11.222Z,135.64
2024-02-14T01:29:11.277Z,132.08
2024-02-14T01:30:11.342Z,130.78
2024-02-14T01:31:11.313Z,128.23
2024-02-14T01:32:11.299Z,126.90
2024-02-14T01:33:11.513Z,128.61
2024-02-14T01:34:11.483Z,126.61
2024-02-14T01:35:11.384Z,129.27
2024-02-14T01:36:11.608Z,127.52
2024-02-14T01:37:11.379Z,125.89
2024-02-14T01:38:11.397Z,126.70
2024-02-14T01:39:11.414Z,129.40
2024-02-14T01:40:11.465Z,129.05
2024-02-14T01:41:11.428Z,131.13
2024-02-14T01:42:11.505Z,133.23
2024-02-14T01:43:11.477Z,134.18
2024-02-14T01:44:11.470Z,135.04
2024-02-14T01:45:11.521Z,134.52
2024-02-14T01:46:11.569Z,136.17
2024-02-14T01:47:11.505Z,137.17
2024-02-14T01:48:11.673Z,139.33
2024-02-14T01:49:11.631Z,140.66
2024-02-14T01:50:11.592Z,142.47
2024-02-14T01:51:12.100Z,139.04
2024-02-14T01:52:11.597Z,144.79
2024-02-14T01:53:11.628Z,142.57
2024-02-14T01:54:11.651Z,146.48
2024-02-14T01:55:11.692Z,145.42
2024-02-14T01:56:11.745Z,148.49
2024-02-14T01:57:11.799Z,146.75
2024-02-14T01:58:11.740Z,148.41
2024-02-14T01:59:11.756Z,147.44
2024-02-14T02:00:11.781Z,148.63
2024-02-14T02:01:11.790Z,148.17
2024-02-14T02:02:11.806Z,146.18
2024-02-14T02:03:11.819Z,144.16
2024-02-14T02:04:11.862Z,148.46
2024-02-14T02:05:11.926Z,143.66
2024-02-14T02:06:12.192Z,146.05
2024-02-14T02:07:11.962Z,144.44
2024-02-14T02:08:11.949Z,142.50
2024-02-14T02:09:12.028Z,141.97
2024-02-14T02:10:11.996Z,142.13
2024-02-14T02:11:12.058Z,142.15
2024-02-14T02:12:12.106Z,141.84
2024-02-14T02:13:12.057Z,139.93
2024-02-14T02:14:12.105Z,139.18
2024-02-14T02:15:12.212Z,140.96
2024-02-14T02:16:12.114Z,137.56
2024-02-14T02:17:12.189Z,139.49
2024-02-14T02:18:12.283Z,139.03
2024-02-14T02:19:12.336Z,138.69
2024-02-14T02:20:12.233Z,136.88
2024-02-14T02:21:12.313Z,137.76
2024-02-14T02:22:12.273Z,136.98
2024-02-14T02:23:12.289Z,136.36
2024-02-14T02:24:12.305Z,135.09
2024-02-14T02:25:12.347Z,136.94
2024-02-14T02:26:12.607Z,136.77
2024-02-14T02:27:12.363Z,137.16
2024-02-14T02:28:12.365Z,135.51
2024-02-14T02:29:12.390Z,137.42
2024-02-14T02:30:12.463Z,137.39
2024-02-14T02:31:12.488Z,137.10
2024-02-14T02:32:12.462Z,138.48
2024-02-14T02:33:12.619Z,141.65
2024-02-14T02:34:13.008Z,138.88
2024-02-14T02:35:12.589Z,137.25
2024-02-14T02:36:12.637Z,138.48
2024-02-14T02:37:12.635Z,138.58
2024-02-14T02:38:12.627Z,141.37
2024-02-14T02:39:12.636Z,138.48
2024-02-14T02:40:12.650Z,139.09
2024-02-14T02:41:12.647Z,140.83
2024-02-14T02:42:12.725Z,140.34
2024-02-14T02:43:12.735Z,139.12
2024-02-14T02:44:12.750Z,136.72
2024-02-14T02:45:12.949Z,138.41
2024-02-14T02:46:12.803Z,140.98
2024-02-14T02:47:12.793Z,138.52
2024-02-14T02:48:12.962Z,137.48
2024-02-14T02:49:13.019Z,138.50
2024-02-14T02:50:12.888Z,136.68
2024-02-14T02:51:12.929Z,137.68
2024-02-14T02:52:12.943Z,136.28
2024-02-14T02:53:12.947Z,138.21
2024-02-14T02:54:13.029Z,137.71
2024-02-14T02:55:13.024Z,139.46
2024-02-14T02:56:13.085Z,137.77
2024-02-14T02:57:13.083Z,139.58
2024-02-14T02:58:13.605Z,140.27
2024-02-14T02:59:13.199Z,141.11
2024-02-14T03:00:13.149Z,144.00
2024-02-14T03:01:13.284Z,145.20
2024-02-14T03:02:13.210Z,144.38
2024-02-14T03:03:13.251Z,146.50
2024-02-14T03:04:13.306Z,146.59
2024-02-14T03:05:13.322Z,146.97
2024-02-14T03:06:13.387Z,144.98
2024-02-14T03:07:13.299Z,149.99
2024-02-14T03:08:13.357Z,147.25
2024-02-14T03:09:13.437Z,149.51
2024-02-14T03:10:13.374Z,147.05
2024-02-14T03:11:13.576Z,151.00
2024-02-14T03:12:13.447Z,151.93
2024-02-14T03:13:13.504Z,151.96
2024-02-14T03:14:13.521Z,152.36
2024-02-14T03:15:13.601Z,154.62
2024-02-14T03:16:13.600Z,155.54
2024-02-14T03:17:13.625Z,153.47
2024-02-14T03:18:13.708Z,157.45
2024-02-14T03:19:13.735Z,158.82
2024-02-14T03:20:16.586Z,157.30
2024-02-14T03:21:13.736Z,157.49
2024-02-14T03:22:13.695Z,157.84
2024-02-14T03:23:13.704Z,159.14
2024-02-14T03:24:13.754Z,159.11
2024-02-14T03:25:13.737Z,159.97
2024-02-14T03:26:13.744Z,164.56
2024-02-14T03:27:13.787Z,161.07
2024-02-14T03:28:13.705Z,160.92
2024-02-14T03:29:13.704Z,162.15
2024-02-14T03:30:13.824Z,164.12
2024-02-14T03:31:13.722Z,165.22
2024-02-14T03:32:14.584Z,163.95
2024-02-14T03:33:13.807Z,166.73
2024-02-14T03:34:13.802Z,166.41
2024-02-14T03:35:13.724Z,163.30
2024-02-14T03:36:13.829Z,164.42
2024-02-14T03:37:13.726Z,166.22
2024-02-14T03:38:13.726Z,167.07
2024-02-14T03:39:13.770Z,165.86
2024-02-14T03:40:13.735Z,165.66
2024-02-14T03:41:14.091Z,166.29
2024-02-14T03:42:13.795Z,165.14
2024-02-14T03:43:13.756Z,166.20
2024-02-14T03:44:13.755Z,164.73
2024-02-14T03:45:13.885Z,165.93
2024-02-14T03:46:13.737Z,166.16
2024-02-14T03:47:13.735Z,166.14
2024-02-14T03:48:13.950Z,163.09
2024-02-14T03:49:14.005Z,164.50
2024-02-14T03:50:13.903Z,160.77
2024-02-14T03:51:14.012Z,160.71
2024-02-14T03:52:14.028Z,159.30
2024-02-14T03:53:14.039Z,160.14
2024-02-14T03:54:14.134Z,155.66
2024-02-14T03:55:14.144Z,152.51
2024-02-14T03:56:14.630Z,154.61
2024-02-14T03:57:14.305Z,150.38
2024-02-14T03:58:14.286Z,147.15
2024-02-14T03:59:14.335Z,145.37
2024-02-14T04:00:14.506Z,145.11
2024-02-14T04:01:14.510Z,142.37
2024-02-14T04:02:14.491Z,140.98
2024-02-14T04:03:14.728Z,139.03
2024-02-14T04:04:14.602Z,139.57
2024-02-14T04:05:14.696Z,137.51
2024-02-14T04:06:14.866Z,138.26
2024-02-14T04:07:14.737Z,137.29
2024-02-14T04:08:14.863Z,134.86
2024-02-14T04:09:14.881Z,133.27
2024-02-14T04:10:14.925Z,131.21
2024-02-14T04:11:15.141Z,129.68
2024-02-14T04:12:15.087Z,129.34
2024-02-14T04:13:15.069Z,130.90
2024-02-14T04:14:15.160Z,130.32
2024-02-14T04:15:15.220Z,131.11
2024-02-14T04:16:15.285Z,130.84
2024-02-14T04:17:15.282Z,131.66
2024-02-14T04:18:15.439Z,128.21
2024-02-14T04:19:15.528Z,129.16
2024-02-14T04:20:15.467Z,129.02
2024-02-14T04:21:15.690Z,133.16
2024-02-14T04:22:15.609Z,133.16
2024-02-14T04:23:15.624Z,132.79
2024-02-14T04:24:15.663Z,132.99
2024-02-14T04:25:15.755Z,132.88
2024-02-14T04:26:15.789Z,132.65
2024-02-14T04:27:15.877Z,133.98
2024-02-14T04:28:15.910Z,135.73
2024-02-14T04:29:15.991Z,136.06
2024-02-14T04:30:16.085Z,133.95
2024-02-14T04:31:16.135Z,138.73
2024-02-14T04:32:16.195Z,135.62
2024-02-14T04:33:16.432Z,133.90
2024-02-14T04:34:16.338Z,139.18
2024-02-14T04:35:16.331Z,138.10
2024-02-14T04:36:16.374Z,140.76
2024-02-14T04:37:16.459Z,139.21
2024-02-14T04:38:16.501Z,138.32
2024-02-14T04:39:16.624Z,139.13
2024-02-14T04:40:16.624Z,140.19
2024-02-14T04:41:16.675Z,143.97
2024-02-14T04:42:16.797Z,143.17
2024-02-14T04:43:16.792Z,144.21
2024-02-14T04:44:16.855Z,145.80
2024-02-14T04:45:17.026Z,143.89
2024-02-14T04:46:16.960Z,145.41
2024-02-14T04:47:17.038Z,148.20
2024-02-14T04:48:17.258Z,145.32
2024-02-14T04:49:17.286Z,149.51
2024-02-14T04:50:24.733Z,50.00
2024-02-14T04:51:24.774Z,50.00
2024-02-14T04:52:24.741Z,50.00
2024-02-14T04:53:24.753Z,50.00
2024-02-14T04:54:24.703Z,50.00
2024-02-14T04:55:24.720Z,50.98
2024-02-14T04:56:24.878Z,51.01
2024-02-14T04:57:24.782Z,52.03
2024-02-14T04:58:24.713Z,52.52
2024-02-14T04:59:24.752Z,52.42
2024-02-14T05:00:24.790Z,50.65
2024-02-14T05:01:24.793Z,53.15
2024-02-14T05:02:24.761Z,54.81
2024-02-14T05:03:24.859Z,55.23
2024-02-14T05:04:24.744Z,55.37
2024-02-14T05:05:24.822Z,54.99
2024-02-14T05:06:24.945Z,55.51
2024-02-14T05:07:24.754Z,55.87
2024-02-14T05:08:24.754Z,58.05
2024-02-14T05:09:24.755Z,59.65
2024-02-14T05:10:24.774Z,57.70
2024-02-14T05:11:24.767Z,57.22
2024-02-14T05:12:24.888Z,57.00
2024-02-14T05:13:24.919Z,59.32
2024-02-14T05:14:25.009Z,60.74
2024-02-14T05:15:24.983Z,59.90
2024-02-14T05:16:25.125Z,63.23
2024-02-14T05:17:25.177Z,64.61
2024-02-14T05:18:25.274Z,62.22
2024-02-14T05:19:25.366Z,64.99
2024-02-14T05:20:25.353Z,65.72
2024-02-14T05:21:25.883Z,67.64
2024-02-14T05:22:25.493Z,68.55
2024-02-14T05:23:25.528Z,69.65
2024-02-14T05:24:25.601Z,65.69
2024-02-14T05:25:25.688Z,66.21
2024-02-14T05:26:25.728Z,67.93
2024-02-14T05:27:25.749Z,68.78
2024-02-14T05:28:25.841Z,69.31
2024-02-14T05:29:25.858Z,65.13
2024-02-14T05:30:26.085Z,66.48
2024-02-14T05:31:26.364Z,67.44
2024-02-14T05:32:26.153Z,68.48
2024-02-14T05:33:26.356Z,68.69
2024-02-14T05:34:26.369Z,70.73
2024-02-14T05:35:26.286Z,69.56
2024-02-14T05:36:26.401Z,71.73
2024-02-14T05:37:26.396Z,71.09
2024-02-14T05:38:26.511Z,72.31
2024-02-14T05:39:26.552Z,71.29
2024-02-14T05:40:26.599Z,73.47
2024-02-14T05:41:26.869Z,70.02
2024-02-14T05:42:26.769Z,67.52
2024-02-14T05:43:26.789Z,67.57
2024-02-14T05:44:26.858Z,66.87
2024-02-14T05:45:26.952Z,67.55
2024-02-14T05:46:27.361Z,66.75
2024-02-14T05:47:27.157Z,64.29
2024-02-14T05:48:27.237Z,65.07
2024-02-14T05:49:27.354Z,64.80
2024-02-14T05:50:27.300Z,63.84
2024-02-14T05:51:27.378Z,65.99
2024-02-14T05:52:27.350Z,59.02
2024-02-14T05:53:27.515Z,60.19
2024-02-14T05:54:27.549Z,62.20
2024-02-14T05:55:27.629Z,60.74
2024-02-14T05:56:27.743Z,59.41
2024-02-14T05:57:27.717Z,60.08
2024-02-14T05:58:27.813Z,61.36
2024-02-14T05:59:27.906Z,61.74
2024-02-14T06:00:29.298Z,58.16
2024-02-14T06:01:28.417Z,59.28
2024-02-14T06:02:28.072Z,58.70
2024-02-14T06:03:28.195Z,58.66
2024-02-14T06:04:28.229Z,61.00
2024-02-14T06:05:28.385Z,58.98
2024-02-14T06:06:28.456Z,60.54
2024-02-14T06:07:28.381Z,61.17
2024-02-14T06:08:28.475Z,59.57
2024-02-14T06:09:28.544Z,60.59
2024-02-14T06:10:28.600Z,58.73
2024-02-14T06:11:28.692Z,60.68
2024-02-14T06:12:28.707Z,65.27
2024-02-14T06:13:28.851Z,62.05
2024-02-14T06:14:28.921Z,67.24
2024-02-14T06:15:28.885Z,68.42
2024-02-14T06:16:29.362Z,70.36
2024-02-14T06:17:29.102Z,70.72
2024-02-14T06:18:29.199Z,74.23
2024-02-14T06:19:29.311Z,75.47
2024-02-14T06:20:29.306Z,76.15
2024-02-14T06:21:29.291Z,80.38
2024-02-14T06:22:29.334Z,81.38
2024-02-14T06:23:29.545Z,81.71
2024-02-14T06:24:29.509Z,81.46
2024-02-14T06:25:29.571Z,81.40
2024-02-14T06:26:29.685Z,84.49
2024-02-14T06:27:29.713Z,84.07
2024-02-14T06:28:29.747Z,84.21
2024-02-14T06:29:29.973Z,82.67
2024-02-14T06:30:33.196Z,87.86
2024-02-14T06:31:29.914Z,87.99
2024-02-14T06:32:30.077Z,88.49
2024-02-14T06:33:30.171Z,88.38
2024-02-14T06:34:30.250Z,88.45
2024-02-14T06:35:30.652Z,89.46
2024-02-14T06:36:29.947Z,89.78
2024-02-14T06:37:30.536Z,88.30
2024-02-14T06:38:29.972Z,88.96
2024-02-14T06:39:29.991Z,84.70
2024-02-14T06:40:29.929Z,86.13
2024-02-14T06:41:30.977Z,87.15
2024-02-14T06:42:29.913Z,86.33
2024-02-14T06:43:29.908Z,83.74
2024-02-14T06:44:29.952Z,81.79
2024-02-14T06:45:29.902Z,81.75
2024-02-14T06:46:29.912Z,78.75
2024-02-14T06:47:29.950Z,79.04
2024-02-14T06:48:30.127Z,76.08
2024-02-14T06:49:30.062Z,76.58
2024-02-14T06:50:30.036Z,72.53
2024-02-14T06:51:30.359Z,74.97
2024-02-14T06:52:29.998Z,73.37
2024-02-14T06:53:30.123Z,73.15
2024-02-14T06:54:30.135Z,70.98
2024-02-14T06:55:30.242Z,71.10
2024-02-14T06:56:30.290Z,73.52
2024-02-14T06:57:30.356Z,71.51
2024-02-14T06:58:30.411Z,69.02
2024-02-14T06:59:30.459Z,71.52
2024-02-14T07:00:30.645Z,70.05
2024-02-14T07:01:30.585Z,69.21
2024-02-14T07:02:30.628Z,71.78
2024-02-14T07:03:30.754Z,70.56
2024-02-14T07:04:30.858Z,72.60
2024-02-14T07:05:31.089Z,72.24
2024-02-14T07:06:30.945Z,71.66
2024-02-14T07:07:30.898Z,72.72
2024-02-14T07:08:30.990Z,70.61
2024-02-14T07:09:31.049Z,68.74
2024-02-14T07:10:31.101Z,67.44
2024-02-14T07:11:31.160Z,67.31
2024-02-14T07:12:31.195Z,66.42
2024-02-14T07:13:31.237Z,67.50
2024-02-14T07:14:31.354Z,67.73
2024-02-14T07:15:31.301Z,68.10
2024-02-14T07:16:31.403Z,69.98
2024-02-14T07:17:31.537Z,69.10
2024-02-14T07:18:31.637Z,70.69
2024-02-14T07:19:31.648Z,71.24
2024-02-14T07:20:31.674Z,74.33
2024-02-14T07:21:31.876Z,72.20
2024-02-14T07:22:31.927Z,77.52
2024-02-14T07:23:31.781Z,74.06
2024-02-14T07:24:31.851Z,77.87
2024-02-14T07:25:31.918Z,77.15
2024-02-14T07:26:32.013Z,76.63
2024-02-14T07:27:32.017Z,76.52
2024-02-14T07:28:32.116Z,77.52
2024-02-14T07:29:32.271Z,76.74
2024-02-14T07:30:32.224Z,76.84
2024-02-14T07:31:32.235Z,74.95
2024-02-14T07:32:32.403Z,77.14
2024-02-14T07:33:32.541Z,79.79
2024-02-14T07:34:32.606Z,75.48
2024-02-14T07:35:32.521Z,75.36
2024-02-14T07:36:32.540Z,76.13
2024-02-14T07:37:32.595Z,77.85
2024-02-14T07:38:32.668Z,75.78
2024-02-14T07:39:32.696Z,76.25
2024-02-14T07:40:32.698Z,73.45
2024-02-14T07:41:32.894Z,77.96
2024-02-14T07:42:32.821Z,77.73
2024-02-14T07:43:32.908Z,76.34
2024-02-14T07:44:32.998Z,75.65
2024-02-14T07:45:33.130Z,78.90
2024-02-14T07:46:33.015Z,75.94
2024-02-14T07:47:33.130Z,76.55
2024-02-14T07:48:33.214Z,76.23
2024-02-14T07:49:33.235Z,71.24
2024-02-14T07:50:33.356Z,74.41
2024-02-14T07:51:33.339Z,74.59
2024-02-14T07:52:35.708Z,72.21
2024-02-14T07:53:33.388Z,74.97
2024-02-14T07:54:33.360Z,74.11
2024-02-14T07:55:33.382Z,73.03
2024-02-14T07:56:33.396Z,74.76
2024-02-14T07:57:33.364Z,71.47
2024-02-14T07:58:33.343Z,73.07
2024-02-14T07:59:33.417Z,75.27
2024-02-14T08:00:33.430Z,73.14
2024-02-14T08:01:33.381Z,73.72
2024-02-14T08:02:33.363Z,73.16
2024-02-14T08:03:33.378Z,73.62
2024-02-14T08:04:33.367Z,73.46
2024-02-14T08:05:33.398Z,73.98
2024-02-14T08:06:34.011Z,70.89
2024-02-14T08:07:33.438Z,73.71
2024-02-14T08:08:33.368Z,71.79
2024-02-14T08:09:33.377Z,71.62
2024-02-14T08:10:33.400Z,74.72
2024-02-14T08:11:33.406Z,75.63
2024-02-14T08:12:33.408Z,71.91
2024-02-14T08:13:33.400Z,72.97
2024-02-14T08:14:33.399Z,77.06
2024-02-14T08:15:33.400Z,75.73
2024-02-14T08:16:33.401Z,75.83
2024-02-14T08:17:33.628Z,75.21
2024-02-14T08:18:33.510Z,76.54
2024-02-14T08:19:33.576Z,72.23
2024-02-14T08:20:33.668Z,74.35
2024-02-14T08:21:33.941Z,74.18
2024-02-14T08:22:33.606Z,71.73
2024-02-14T08:23:33.664Z,72.31
2024-02-14T08:24:33.772Z,74.52
2024-02-14T08:25:33.765Z,73.85
2024-02-14T08:26:34.141Z,71.72
2024-02-14T08:27:33.921Z,74.84
2024-02-14T08:28:33.995Z,70.76
2024-02-14T08:29:34.094Z,70.74
2024-02-14T08:30:34.288Z,71.92
2024-02-14T08:31:34.210Z,72.59
2024-02-14T08:32:34.396Z,74.66
2024-02-14T08:33:34.481Z,75.44
2024-02-14T08:34:34.710Z,72.51
2024-02-14T08:35:41.690Z,71.40
2024-02-14T08:36:35.478Z,71.67
2024-02-14T08:37:34.560Z,72.37
2024-02-14T08:38:34.438Z,73.31
2024-02-14T08:39:34.416Z,72.68
2024-02-14T08:40:34.447Z,76.39
2024-02-14T08:41:34.474Z,74.39
2024-02-14T08:42:34.458Z,74.32
2024-02-14T08:43:34.446Z,73.91
2024-02-14T08:44:34.527Z,72.68
2024-02-14T08:45:34.463Z,72.79
2024-02-14T08:46:34.482Z,72.69
2024-02-14T08:47:34.526Z,72.47
2024-02-14T08:48:34.571Z,72.64
2024-02-14T08:49:34.517Z,72.33
2024-02-14T08:50:34.503Z,71.63
2024-02-14T08:51:34.457Z,72.29
2024-02-14T08:52:34.486Z,70.78
2024-02-14T08:53:34.525Z,71.82
2024-02-14T08:54:34.491Z,71.58
2024-02-14T08:55:34.590Z,71.82
2024-02-14T08:56:34.763Z,73.40
2024-02-14T08:57:34.535Z,72.82
2024-02-14T08:58:35.374Z,71.87
2024-02-14T08:59:34.692Z,73.49
2024-02-14T09:00:34.767Z,73.55
2024-02-14T09:01:34.900Z,71.62
2024-02-14T09:02:34.903Z,75.48
2024-02-14T09:03:35.040Z,72.03
2024-02-14T09:04:35.065Z,71.57
2024-02-14T09:05:35.217Z,68.73
2024-02-14T09:06:35.519Z,67.71
2024-02-14T09:07:35.219Z,67.90
2024-02-14T09:08:35.355Z,66.37
2024-02-14T09:09:35.375Z,65.03
2024-02-14T09:10:35.465Z,64.29
2024-02-14T09:11:35.589Z,61.96
2024-02-14T09:12:35.574Z,63.71
2024-02-14T09:13:35.637Z,61.84
2024-02-14T09:14:35.717Z,64.96
2024-02-14T09:15:35.800Z,63.41
2024-02-14T09:16:35.898Z,61.19
2024-02-14T09:17:35.970Z,63.29
2024-02-14T09:18:36.060Z,62.69
2024-02-14T09:19:36.096Z,62.74
2024-02-14T09:20:36.347Z,60.04
2024-02-14T09:21:36.230Z,59.75
2024-02-14T09:22:36.268Z,57.33
2024-02-14T09:23:36.352Z,59.70
2024-02-14T09:24:36.390Z,58.44
2024-02-14T09:25:36.429Z,60.22
2024-02-14T09:26:36.935Z,63.48
2024-02-14T09:27:36.562Z,57.77
2024-02-14T09:28:36.608Z,54.04
2024-02-14T09:29:36.719Z,53.97
2024-02-14T09:30:39.161Z,54.00
2024-02-14T09:31:36.779Z,50.22
2024-02-14T09:32:36.848Z,52.25
2024-02-14T09:33:36.858Z,50.38
2024-02-14T09:34:37.021Z,53.49
2024-02-14T09:35:36.863Z,51.03
2024-02-14T09:36:36.920Z,54.48
2024-02-14T09:37:36.779Z,56.09
2024-02-14T09:38:36.850Z,53.46
2024-02-14T09:39:36.790Z,53.51
2024-02-14T09:40:36.770Z,53.60
2024-02-14T09:41:36.831Z,51.71
2024-02-14T09:42:36.770Z,52.07
2024-02-14T09:43:36.793Z,52.47
2024-02-14T09:44:36.781Z,51.72
2024-02-14T09:45:36.790Z,50.56
2024-02-14T09:46:36.787Z,51.25
2024-02-14T09:47:36.952Z,52.43
2024-02-14T09:48:36.966Z,51.99
2024-02-14T09:49:36.931Z,50.40
2024-02-14T09:50:36.893Z,51.18
2024-02-14T09:51:36.817Z,51.21
2024-02-14T09:52:36.772Z,52.17
2024-02-14T09:53:36.781Z,51.88
2024-02-14T09:54:36.820Z,50.30
2024-02-14T09:55:36.769Z,51.74
2024-02-14T09:56:36.818Z,53.45
2024-02-14T09:57:36.802Z,53.43
2024-02-14T09:58:36.782Z,53.41
2024-02-14T09:59:36.787Z,52.10
2024-02-14T10:00:36.810Z,56.20
2024-02-14T10:01:36.821Z,63.03
2024-02-14T10:02:36.814Z,63.74
2024-02-14T10:03:36.802Z,70.52
2024-02-14T10:04:36.880Z,71.86
2024-02-14T10:05:36.825Z,76.85
2024-02-14T10:06:36.970Z,79.18
2024-02-14T10:07:36.774Z,85.15
2024-02-14T10:08:40.280Z,87.33
2024-02-14T10:09:37.836Z,87.61
2024-02-14T10:10:36.832Z,88.48
2024-02-14T10:11:36.928Z,90.63
2024-02-14T10:12:36.826Z,92.96
2024-02-14T10:13:36.804Z,101.43
2024-02-14T10:14:36.831Z,99.72
2024-02-14T10:15:36.825Z,103.56
2024-02-14T10:16:36.814Z,104.40
2024-02-14T10:17:36.865Z,107.01
2024-02-14T10:18:36.918Z,107.13
2024-02-14T10:19:36.906Z,109.10
2024-02-14T10:20:36.873Z,111.91
2024-02-14T10:21:36.849Z,109.80
2024-02-14T10:22:36.837Z,113.56
2024-02-14T10:23:36.832Z,109.87
2024-02-14T10:24:36.830Z,112.70
2024-02-14T10:25:36.838Z,110.83
2024-02-14T10:26:36.976Z,113.90
2024-02-14T10:27:36.853Z,117.37
2024-02-14T10:28:43.414Z,116.16
2024-02-14T10:29:37.887Z,116.37
2024-02-14T10:30:36.834Z,116.90
2024-02-14T10:31:36.918Z,116.49
2024-02-14T10:32:36.926Z,118.25
2024-02-14T10:33:36.946Z,121.14
2024-02-14T10:34:36.923Z,120.71
2024-02-14T10:35:36.972Z,122.83
2024-02-14T10:36:37.056Z,121.38
2024-02-14T10:37:36.881Z,125.44
2024-02-14T10:38:37.001Z,124.01
2024-02-14T10:39:36.883Z,122.57
2024-02-14T10:40:36.895Z,122.45
2024-02-14T10:41:36.882Z,124.02
2024-02-14T10:42:36.882Z,123.93
2024-02-14T10:43:36.911Z,127.89
2024-02-14T10:44:36.913Z,125.49
2024-02-14T10:45:36.889Z,125.98
2024-02-14T10:46:36.906Z,126.35
2024-02-14T10:47:36.981Z,129.27
2024-02-14T10:48:37.101Z,126.50
2024-02-14T10:49:37.087Z,126.77
2024-02-14T10:50:36.884Z,128.61
2024-02-14T10:51:36.927Z,130.08
2024-02-14T10:52:36.897Z,131.41
2024-02-14T10:53:36.936Z,130.98
2024-02-14T10:54:36.987Z,129.34
2024-02-14T10:55:36.911Z,131.48
2024-02-14T10:56:36.964Z,130.14
2024-02-14T10:57:36.958Z,131.53
2024-02-14T10:58:36.935Z,132.67
2024-02-14T10:59:36.944Z,132.77
2024-02-14T11:00:36.929Z,133.62
2024-02-14T11:01:37.401Z,134.69
2024-02-14T11:02:37.039Z,132.47
2024-02-14T11:03:37.119Z,133.30
2024-02-14T11:04:36.917Z,135.45
2024-02-14T11:05:36.981Z,133.96
2024-02-14T11:06:37.030Z,134.26
2024-02-14T11:07:36.933Z,133.36
2024-02-14T11:08:37.101Z,135.34
2024-02-14T11:09:39.705Z,138.54
2024-02-14T11:10:37.151Z,138.87
2024-02-14T11:11:37.453Z,134.57
2024-02-14T11:12:36.998Z,137.94
2024-02-14T11:13:37.009Z,138.07
2024-02-14T11:14:37.117Z,139.02
2024-02-14T11:15:37.034Z,139.39
2024-02-14T11:16:37.455Z,136.75
2024-02-14T11:17:37.114Z,137.43
2024-02-14T11:18:37.186Z,138.18
2024-02-14T11:19:37.286Z,139.88
2024-02-14T11:20:37.170Z,137.98
2024-02-14T11:21:37.108Z,140.11
2024-02-14T11:22:37.050Z,140.47
2024-02-14T11:23:37.085Z,139.83
2024-02-14T11:24:37.025Z,140.78
2024-02-14T11:25:37.052Z,140.73
2024-02-14T11:26:37.094Z,141.57
2024-02-14T11:27:37.497Z,143.09
2024-02-14T11:28:36.999Z,141.32
2024-02-14T11:29:37.068Z,141.55
2024-02-14T11:30:37.024Z,141.13
2024-02-14T11:31:37.025Z,140.96
2024-02-14T11:32:37.129Z,142.21
2024-02-14T11:33:37.144Z,141.02
2024-02-14T11:34:38.466Z,143.23
2024-02-14T11:35:37.990Z,141.70
2024-02-14T11:36:37.089Z,143.58
2024-02-14T11:37:37.435Z,143.34
2024-02-14T11:38:37.076Z,145.12
2024-02-14T11:39:37.022Z,145.79
2024-02-14T11:40:37.090Z,145.48
2024-02-14T11:41:37.179Z,144.47
2024-02-14T11:42:37.211Z,143.73
2024-02-14T11:43:37.287Z,145.80
2024-02-14T11:44:37.370Z,141.54
2024-02-14T11:45:37.412Z,146.10
2024-02-14T11:46:37.460Z,146.28
2024-02-14T11:47:37.615Z,147.30
2024-02-14T11:48:40.191Z,147.37
2024-02-14T11:49:37.662Z,150.14
2024-02-14T11:50:37.570Z,150.01
2024-02-14T11:51:37.535Z,151.43
2024-02-14T11:52:37.547Z,147.73
2024-02-14T11:53:37.590Z,148.90
2024-02-14T11:54:37.523Z,149.62
2024-02-14T11:55:37.541Z,149.55
2024-02-14T11:56:37.751Z,148.52
2024-02-14T11:57:37.552Z,148.00
2024-02-14T11:58:37.577Z,148.97
2024-02-14T11:59:37.585Z,151.32
2024-02-14T12:00:37.599Z,151.29
2024-02-14T12:01:37.603Z,148.61
2024-02-14T12:02:37.600Z,150.50
2024-02-14T12:03:37.559Z,149.25
2024-02-14T12:04:38.332Z,154.30
2024-02-14T12:05:37.860Z,151.64
2024-02-14T12:06:37.786Z,152.86
2024-02-14T12:07:37.662Z,154.25
2024-02-14T12:08:37.568Z,153.29
2024-02-14T12:09:37.533Z,155.38
2024-02-14T12:10:37.563Z,152.87
2024-02-14T12:11:37.568Z,154.95
2024-02-14T12:12:37.937Z,153.66
2024-02-14T12:13:37.530Z,155.91
2024-02-14T12:14:37.629Z,153.65
2024-02-14T12:15:37.564Z,155.07
2024-02-14T12:16:37.609Z,154.45
2024-02-14T12:17:37.650Z,156.93
2024-02-14T12:18:37.781Z,156.55
2024-02-14T12:19:37.747Z,154.28
2024-02-14T12:20:37.619Z,154.14
2024-02-14T12:21:37.548Z,155.75
2024-02-14T12:22:37.656Z,155.14
2024-02-14T12:23:37.586Z,155.81
2024-02-14T12:24:37.630Z,156.87
2024-02-14T12:25:37.582Z,156.24
2024-02-14T12:26:37.684Z,156.93
2024-02-14T12:27:37.564Z,158.97
2024-02-14T12:28:37.594Z,157.39
2024-02-14T12:29:37.609Z,155.88
2024-02-14T12:30:37.569Z,157.31
2024-02-14T12:31:37.661Z,157.86
2024-02-14T12:32:37.657Z,158.18
2024-02-14T12:33:37.714Z,157.09
2024-02-14T12:34:37.821Z,158.63
2024-02-14T12:35:37.617Z,157.66
2024-02-14T12:36:37.604Z,157.74
2024-02-14T12:37:37.618Z,157.91
2024-02-14T12:38:37.589Z,157.04